sensor_id;sensor_type;location;lat;lon;timestamp;P1;durP1;ratioP1;P2;durP2;ratioP2
9722;SDS011;4900;49.306;8.500;2023-03-01T00:01:06;14.27;;;9.40;;
9722;SDS011;4900;49.306;8.500;2023-03-01T00:03:34;12.97;;;8.97;;
9722;SDS011;4900;49.306;8.500;2023-03-01T00:06:00;13.67;;;8.80;;
9722;SDS011;4900;49.306;8.500;2023-03-01T00:08:26;13.80;;;9.00;;
9722;SDS011;4900;49.306;8.500;2023-03-01T00:11:10;13.30;;;9.03;;
9722;SDS011;4900;49.306;8.500;2023-03-01T00:13:42;14.97;;;9.30;;
9722;SDS011;4900;49.306;8.500;2023-03-01T00:16:15;13.73;;;8.87;;
9722;SDS011;4900;49.306;8.500;2023-03-01T00:18:44;13.50;;;8.37;;
9722;SDS011;4900;49.306;8.500;2023-03-01T00:21:11;12.53;;;8.67;;
9722;SDS011;4900;49.306;8.500;2023-03-01T00:23:37;12.70;;;9.00;;
9722;SDS011;4900;49.306;8.500;2023-03-01T00:26:11;13.50;;;9.03;;
9722;SDS011;4900;49.306;8.500;2023-03-01T00:28:38;12.50;;;8.70;;
9722;SDS011;4900;49.306;8.500;2023-03-01T00:31:10;14.20;;;8.63;;
9722;SDS011;4900;49.306;8.500;2023-03-01T00:33:38;14.37;;;8.67;;
9722;SDS011;4900;49.306;8.500;2023-03-01T00:36:04;15.10;;;9.37;;
9722;SDS011;4900;49.306;8.500;2023-03-01T00:38:30;14.70;;;9.53;;
9722;SDS011;4900;49.306;8.500;2023-03-01T00:41:02;14.70;;;9.10;;
9722;SDS011;4900;49.306;8.500;2023-03-01T00:43:29;13.87;;;9.63;;
9722;SDS011;4900;49.306;8.500;2023-03-01T00:45:55;15.73;;;9.67;;
9722;SDS011;4900;49.306;8.500;2023-03-01T00:48:21;16.73;;;9.67;;
9722;SDS011;4900;49.306;8.500;2023-03-01T00:50:46;14.00;;;9.07;;
9722;SDS011;4900;49.306;8.500;2023-03-01T00:53:12;13.53;;;9.00;;
9722;SDS011;4900;49.306;8.500;2023-03-01T00:55:37;14.33;;;9.43;;
9722;SDS011;4900;49.306;8.500;2023-03-01T00:58:03;12.90;;;8.87;;
9722;SDS011;4900;49.306;8.500;2023-03-01T01:00:28;14.13;;;9.10;;
9722;SDS011;4900;49.306;8.500;2023-03-01T01:02:54;15.07;;;9.43;;
9722;SDS011;4900;49.306;8.500;2023-03-01T01:05:19;14.07;;;9.00;;
9722;SDS011;4900;49.306;8.500;2023-03-01T01:07:47;15.53;;;9.63;;
9722;SDS011;4900;49.306;8.500;2023-03-01T01:10:13;14.30;;;9.43;;
9722;SDS011;4900;49.306;8.500;2023-03-01T01:12:42;17.80;;;9.67;;
9722;SDS011;4900;49.306;8.500;2023-03-01T01:15:09;15.57;;;9.37;;
9722;SDS011;4900;49.306;8.500;2023-03-01T01:17:37;15.60;;;9.50;;
9722;SDS011;4900;49.306;8.500;2023-03-01T01:20:02;15.57;;;10.07;;
9722;SDS011;4900;49.306;8.500;2023-03-01T01:22:28;16.43;;;9.97;;
9722;SDS011;4900;49.306;8.500;2023-03-01T01:24:54;16.33;;;10.07;;
9722;SDS011;4900;49.306;8.500;2023-03-01T01:27:19;15.67;;;9.70;;
9722;SDS011;4900;49.306;8.500;2023-03-01T01:29:44;16.73;;;10.13;;
9722;SDS011;4900;49.306;8.500;2023-03-01T01:32:10;15.40;;;9.97;;
9722;SDS011;4900;49.306;8.500;2023-03-01T01:34:35;15.87;;;10.53;;
9722;SDS011;4900;49.306;8.500;2023-03-01T01:37:01;17.00;;;10.57;;
9722;SDS011;4900;49.306;8.500;2023-03-01T01:39:27;17.03;;;10.40;;
9722;SDS011;4900;49.306;8.500;2023-03-01T01:41:53;15.97;;;9.73;;
9722;SDS011;4900;49.306;8.500;2023-03-01T01:44:23;16.87;;;10.13;;
9722;SDS011;4900;49.306;8.500;2023-03-01T01:49:49;14.83;;;9.80;;
9722;SDS011;4900;49.306;8.500;2023-03-01T01:52:18;16.30;;;10.63;;
9722;SDS011;4900;49.306;8.500;2023-03-01T01:55:12;15.97;;;10.20;;
9722;SDS011;4900;49.306;8.500;2023-03-01T01:57:46;18.17;;;10.60;;
9722;SDS011;4900;49.306;8.500;2023-03-01T02:00:15;18.53;;;11.20;;
9722;SDS011;4900;49.306;8.500;2023-03-01T02:02:47;16.57;;;10.50;;
9722;SDS011;4900;49.306;8.500;2023-03-01T02:07:51;16.50;;;10.70;;
9722;SDS011;4900;49.306;8.500;2023-03-01T02:10:17;19.23;;;10.73;;
9722;SDS011;4900;49.306;8.500;2023-03-01T02:12:43;16.03;;;10.47;;
9722;SDS011;4900;49.306;8.500;2023-03-01T02:15:09;18.10;;;11.03;;
9722;SDS011;4900;49.306;8.500;2023-03-01T02:17:35;17.37;;;10.10;;
9722;SDS011;4900;49.306;8.500;2023-03-01T02:22:55;16.40;;;10.27;;
9722;SDS011;4900;49.306;8.500;2023-03-01T02:25:29;17.67;;;11.43;;
9722;SDS011;4900;49.306;8.500;2023-03-01T02:30:41;16.03;;;10.47;;
9722;SDS011;4900;49.306;8.500;2023-03-01T02:33:29;17.90;;;10.63;;
9722;SDS011;4900;49.306;8.500;2023-03-01T02:36:01;16.67;;;10.37;;
9722;SDS011;4900;49.306;8.500;2023-03-01T02:38:30;19.27;;;11.30;;
9722;SDS011;4900;49.306;8.500;2023-03-01T02:40:56;17.53;;;11.30;;
9722;SDS011;4900;49.306;8.500;2023-03-01T02:43:23;18.30;;;11.37;;
9722;SDS011;4900;49.306;8.500;2023-03-01T02:45:56;19.13;;;11.77;;
9722;SDS011;4900;49.306;8.500;2023-03-01T02:48:23;17.77;;;11.30;;
9722;SDS011;4900;49.306;8.500;2023-03-01T02:56:12;17.97;;;10.30;;
9722;SDS011;4900;49.306;8.500;2023-03-01T02:58:41;16.27;;;10.47;;
9722;SDS011;4900;49.306;8.500;2023-03-01T03:01:10;17.03;;;10.63;;
9722;SDS011;4900;49.306;8.500;2023-03-01T03:03:35;16.63;;;10.50;;
9722;SDS011;4900;49.306;8.500;2023-03-01T03:06:01;18.30;;;11.23;;
9722;SDS011;4900;49.306;8.500;2023-03-01T03:08:26;19.43;;;11.40;;
9722;SDS011;4900;49.306;8.500;2023-03-01T03:10:52;21.67;;;10.63;;
9722;SDS011;4900;49.306;8.500;2023-03-01T03:13:18;14.97;;;9.67;;
9722;SDS011;4900;49.306;8.500;2023-03-01T03:15:44;16.50;;;10.67;;
9722;SDS011;4900;49.306;8.500;2023-03-01T03:18:11;15.87;;;10.73;;
9722;SDS011;4900;49.306;8.500;2023-03-01T03:20:39;15.20;;;9.50;;
9722;SDS011;4900;49.306;8.500;2023-03-01T03:23:06;18.00;;;10.60;;
9722;SDS011;4900;49.306;8.500;2023-03-01T03:25:32;18.77;;;11.33;;
9722;SDS011;4900;49.306;8.500;2023-03-01T03:27:57;17.87;;;11.07;;
9722;SDS011;4900;49.306;8.500;2023-03-01T03:30:27;15.90;;;9.53;;
9722;SDS011;4900;49.306;8.500;2023-03-01T03:32:55;15.57;;;10.37;;
9722;SDS011;4900;49.306;8.500;2023-03-01T03:35:23;19.10;;;11.37;;
9722;SDS011;4900;49.306;8.500;2023-03-01T03:37:59;17.57;;;10.40;;
9722;SDS011;4900;49.306;8.500;2023-03-01T03:40:30;15.60;;;10.33;;
9722;SDS011;4900;49.306;8.500;2023-03-01T03:42:57;16.97;;;10.80;;
9722;SDS011;4900;49.306;8.500;2023-03-01T03:45:23;15.67;;;10.30;;
9722;SDS011;4900;49.306;8.500;2023-03-01T03:47:49;16.83;;;9.70;;
9722;SDS011;4900;49.306;8.500;2023-03-01T03:50:15;16.30;;;11.03;;
9722;SDS011;4900;49.306;8.500;2023-03-01T03:52:41;15.23;;;9.87;;
9722;SDS011;4900;49.306;8.500;2023-03-01T03:55:08;18.53;;;10.97;;
9722;SDS011;4900;49.306;8.500;2023-03-01T03:57:42;18.57;;;10.17;;
9722;SDS011;4900;49.306;8.500;2023-03-01T04:00:09;17.63;;;10.97;;
9722;SDS011;4900;49.306;8.500;2023-03-01T04:02:40;17.10;;;9.77;;
9722;SDS011;4900;49.306;8.500;2023-03-01T04:05:07;15.57;;;9.80;;
9722;SDS011;4900;49.306;8.500;2023-03-01T04:07:37;16.50;;;10.27;;
9722;SDS011;4900;49.306;8.500;2023-03-01T04:10:07;15.57;;;10.10;;
9722;SDS011;4900;49.306;8.500;2023-03-01T04:12:35;18.00;;;10.87;;
9722;SDS011;4900;49.306;8.500;2023-03-01T04:15:01;18.27;;;10.70;;
9722;SDS011;4900;49.306;8.500;2023-03-01T04:17:37;18.43;;;11.40;;
9722;SDS011;4900;49.306;8.500;2023-03-01T04:20:04;18.47;;;11.63;;
9722;SDS011;4900;49.306;8.500;2023-03-01T04:22:30;18.33;;;10.80;;
9722;SDS011;4900;49.306;8.500;2023-03-01T04:24:57;18.63;;;11.20;;
9722;SDS011;4900;49.306;8.500;2023-03-01T04:27:23;19.47;;;11.60;;
9722;SDS011;4900;49.306;8.500;2023-03-01T04:29:48;21.90;;;12.57;;
9722;SDS011;4900;49.306;8.500;2023-03-01T04:32:14;20.00;;;11.70;;
9722;SDS011;4900;49.306;8.500;2023-03-01T04:34:41;19.57;;;11.93;;
9722;SDS011;4900;49.306;8.500;2023-03-01T04:37:06;20.33;;;11.73;;
9722;SDS011;4900;49.306;8.500;2023-03-01T04:39:32;20.53;;;10.67;;
9722;SDS011;4900;49.306;8.500;2023-03-01T04:41:57;19.03;;;11.83;;
9722;SDS011;4900;49.306;8.500;2023-03-01T04:44:23;22.77;;;12.87;;
9722;SDS011;4900;49.306;8.500;2023-03-01T04:46:49;19.10;;;12.13;;
9722;SDS011;4900;49.306;8.500;2023-03-01T04:49:15;21.17;;;11.97;;
9722;SDS011;4900;49.306;8.500;2023-03-01T04:51:41;18.40;;;10.90;;
9722;SDS011;4900;49.306;8.500;2023-03-01T04:54:06;18.30;;;10.77;;
9722;SDS011;4900;49.306;8.500;2023-03-01T04:56:34;20.47;;;11.37;;
9722;SDS011;4900;49.306;8.500;2023-03-01T04:58:59;21.20;;;12.10;;
9722;SDS011;4900;49.306;8.500;2023-03-01T05:01:25;20.37;;;12.17;;
9722;SDS011;4900;49.306;8.500;2023-03-01T05:03:51;21.03;;;12.43;;
9722;SDS011;4900;49.306;8.500;2023-03-01T05:06:17;19.17;;;11.67;;
9722;SDS011;4900;49.306;8.500;2023-03-01T05:08:44;21.33;;;12.70;;
9722;SDS011;4900;49.306;8.500;2023-03-01T05:11:10;20.70;;;11.70;;
9722;SDS011;4900;49.306;8.500;2023-03-01T05:13:37;26.10;;;12.33;;
9722;SDS011;4900;49.306;8.500;2023-03-01T05:16:03;20.70;;;12.03;;
9722;SDS011;4900;49.306;8.500;2023-03-01T05:18:31;21.27;;;11.97;;
9722;SDS011;4900;49.306;8.500;2023-03-01T05:21:05;25.20;;;12.77;;
9722;SDS011;4900;49.306;8.500;2023-03-01T05:23:35;21.10;;;12.40;;
9722;SDS011;4900;49.306;8.500;2023-03-01T05:26:01;22.07;;;13.00;;
9722;SDS011;4900;49.306;8.500;2023-03-01T05:28:28;22.80;;;13.13;;
9722;SDS011;4900;49.306;8.500;2023-03-01T05:30:55;22.90;;;12.43;;
9722;SDS011;4900;49.306;8.500;2023-03-01T05:33:20;21.80;;;12.73;;
9722;SDS011;4900;49.306;8.500;2023-03-01T05:35:47;21.23;;;12.40;;
9722;SDS011;4900;49.306;8.500;2023-03-01T05:38:13;22.70;;;12.83;;
9722;SDS011;4900;49.306;8.500;2023-03-01T05:40:40;23.83;;;12.83;;
9722;SDS011;4900;49.306;8.500;2023-03-01T05:43:07;21.30;;;12.30;;
9722;SDS011;4900;49.306;8.500;2023-03-01T05:45:32;22.33;;;12.43;;
9722;SDS011;4900;49.306;8.500;2023-03-01T05:48:00;22.03;;;12.77;;
9722;SDS011;4900;49.306;8.500;2023-03-01T05:50:26;21.87;;;12.17;;
9722;SDS011;4900;49.306;8.500;2023-03-01T05:53:00;19.97;;;11.70;;
9722;SDS011;4900;49.306;8.500;2023-03-01T05:55:29;20.83;;;11.80;;
9722;SDS011;4900;49.306;8.500;2023-03-01T05:57:57;19.37;;;11.50;;
9722;SDS011;4900;49.306;8.500;2023-03-01T06:00:25;21.10;;;12.30;;
9722;SDS011;4900;49.306;8.500;2023-03-01T06:02:53;19.93;;;12.50;;
9722;SDS011;4900;49.306;8.500;2023-03-01T06:05:19;21.40;;;12.67;;
9722;SDS011;4900;49.306;8.500;2023-03-01T06:07:44;20.23;;;11.73;;
9722;SDS011;4900;49.306;8.500;2023-03-01T06:10:11;22.20;;;11.90;;
9722;SDS011;4900;49.306;8.500;2023-03-01T06:12:38;23.10;;;12.63;;
9722;SDS011;4900;49.306;8.500;2023-03-01T06:15:05;20.17;;;12.37;;
9722;SDS011;4900;49.306;8.500;2023-03-01T06:17:32;22.40;;;12.27;;
9722;SDS011;4900;49.306;8.500;2023-03-01T06:20:12;18.57;;;11.57;;
9722;SDS011;4900;49.306;8.500;2023-03-01T06:22:43;20.40;;;11.87;;
9722;SDS011;4900;49.306;8.500;2023-03-01T06:25:10;20.83;;;11.83;;
9722;SDS011;4900;49.306;8.500;2023-03-01T06:27:37;20.40;;;12.27;;
9722;SDS011;4900;49.306;8.500;2023-03-01T06:30:03;21.77;;;12.07;;
9722;SDS011;4900;49.306;8.500;2023-03-01T06:32:29;21.17;;;12.17;;
9722;SDS011;4900;49.306;8.500;2023-03-01T06:34:56;21.37;;;12.07;;
9722;SDS011;4900;49.306;8.500;2023-03-01T06:37:21;22.07;;;11.87;;
9722;SDS011;4900;49.306;8.500;2023-03-01T06:39:47;20.23;;;12.43;;
9722;SDS011;4900;49.306;8.500;2023-03-01T06:42:12;24.10;;;13.57;;
9722;SDS011;4900;49.306;8.500;2023-03-01T06:44:38;24.63;;;12.50;;
9722;SDS011;4900;49.306;8.500;2023-03-01T06:47:03;20.97;;;12.87;;
9722;SDS011;4900;49.306;8.500;2023-03-01T06:49:29;23.30;;;13.83;;
9722;SDS011;4900;49.306;8.500;2023-03-01T06:51:55;21.07;;;12.67;;
9722;SDS011;4900;49.306;8.500;2023-03-01T06:54:21;21.33;;;13.23;;
9722;SDS011;4900;49.306;8.500;2023-03-01T06:56:47;24.67;;;13.37;;
9722;SDS011;4900;49.306;8.500;2023-03-01T06:59:14;23.67;;;13.30;;
9722;SDS011;4900;49.306;8.500;2023-03-01T07:01:40;21.63;;;12.47;;
9722;SDS011;4900;49.306;8.500;2023-03-01T07:04:05;23.23;;;12.67;;
9722;SDS011;4900;49.306;8.500;2023-03-01T07:06:31;22.60;;;12.73;;
9722;SDS011;4900;49.306;8.500;2023-03-01T07:08:56;24.17;;;13.50;;
9722;SDS011;4900;49.306;8.500;2023-03-01T07:11:22;23.07;;;12.97;;
9722;SDS011;4900;49.306;8.500;2023-03-01T07:13:48;22.53;;;13.23;;
9722;SDS011;4900;49.306;8.500;2023-03-01T07:16:13;21.90;;;12.93;;
9722;SDS011;4900;49.306;8.500;2023-03-01T07:18:39;26.40;;;15.00;;
9722;SDS011;4900;49.306;8.500;2023-03-01T07:21:06;23.87;;;14.47;;
9722;SDS011;4900;49.306;8.500;2023-03-01T07:23:37;24.37;;;14.13;;
9722;SDS011;4900;49.306;8.500;2023-03-01T07:26:02;24.03;;;14.07;;
9722;SDS011;4900;49.306;8.500;2023-03-01T07:28:28;23.63;;;13.70;;
9722;SDS011;4900;49.306;8.500;2023-03-01T07:30:54;26.03;;;15.17;;
9722;SDS011;4900;49.306;8.500;2023-03-01T07:33:20;26.03;;;15.37;;
9722;SDS011;4900;49.306;8.500;2023-03-01T07:35:45;26.90;;;16.27;;
9722;SDS011;4900;49.306;8.500;2023-03-01T07:38:11;27.67;;;16.47;;
9722;SDS011;4900;49.306;8.500;2023-03-01T07:40:36;26.73;;;16.17;;
9722;SDS011;4900;49.306;8.500;2023-03-01T07:43:02;31.77;;;17.87;;
9722;SDS011;4900;49.306;8.500;2023-03-01T07:45:28;28.00;;;15.87;;
9722;SDS011;4900;49.306;8.500;2023-03-01T07:47:55;27.80;;;15.63;;
9722;SDS011;4900;49.306;8.500;2023-03-01T07:50:21;30.20;;;16.30;;
9722;SDS011;4900;49.306;8.500;2023-03-01T07:52:48;27.13;;;15.70;;
9722;SDS011;4900;49.306;8.500;2023-03-01T07:55:14;27.90;;;16.13;;
9722;SDS011;4900;49.306;8.500;2023-03-01T07:57:41;30.23;;;16.87;;
9722;SDS011;4900;49.306;8.500;2023-03-01T08:00:07;30.73;;;16.90;;
9722;SDS011;4900;49.306;8.500;2023-03-01T08:02:34;27.40;;;16.40;;
9722;SDS011;4900;49.306;8.500;2023-03-01T08:05:00;26.30;;;15.77;;
9722;SDS011;4900;49.306;8.500;2023-03-01T08:07:26;23.43;;;15.50;;
9722;SDS011;4900;49.306;8.500;2023-03-01T08:09:51;23.47;;;14.80;;
9722;SDS011;4900;49.306;8.500;2023-03-01T08:12:17;21.63;;;13.73;;
9722;SDS011;4900;49.306;8.500;2023-03-01T08:14:42;23.97;;;14.60;;
9722;SDS011;4900;49.306;8.500;2023-03-01T08:17:08;22.70;;;14.80;;
9722;SDS011;4900;49.306;8.500;2023-03-01T08:19:33;21.00;;;13.50;;
9722;SDS011;4900;49.306;8.500;2023-03-01T08:22:00;22.07;;;14.77;;
9722;SDS011;4900;49.306;8.500;2023-03-01T08:24:27;21.00;;;13.97;;
9722;SDS011;4900;49.306;8.500;2023-03-01T08:26:53;18.67;;;13.20;;
9722;SDS011;4900;49.306;8.500;2023-03-01T08:29:19;20.77;;;14.00;;
9722;SDS011;4900;49.306;8.500;2023-03-01T08:31:45;22.03;;;14.00;;
9722;SDS011;4900;49.306;8.500;2023-03-01T08:34:12;20.80;;;13.40;;
9722;SDS011;4900;49.306;8.500;2023-03-01T08:36:40;19.93;;;13.63;;
9722;SDS011;4900;49.306;8.500;2023-03-01T08:39:07;19.10;;;13.53;;
9722;SDS011;4900;49.306;8.500;2023-03-01T08:41:34;20.33;;;14.03;;
9722;SDS011;4900;49.306;8.500;2023-03-01T08:44:00;19.40;;;13.97;;
9722;SDS011;4900;49.306;8.500;2023-03-01T08:46:29;20.20;;;13.30;;
9722;SDS011;4900;49.306;8.500;2023-03-01T08:49:06;21.57;;;13.80;;
9722;SDS011;4900;49.306;8.500;2023-03-01T08:51:33;19.30;;;13.43;;
9722;SDS011;4900;49.306;8.500;2023-03-01T08:54:05;21.23;;;13.80;;
9722;SDS011;4900;49.306;8.500;2023-03-01T08:56:34;18.03;;;13.43;;
9722;SDS011;4900;49.306;8.500;2023-03-01T08:59:00;18.73;;;13.73;;
9722;SDS011;4900;49.306;8.500;2023-03-01T09:01:25;17.70;;;13.30;;
9722;SDS011;4900;49.306;8.500;2023-03-01T09:03:51;18.63;;;13.90;;
9722;SDS011;4900;49.306;8.500;2023-03-01T09:06:17;19.83;;;13.27;;
9722;SDS011;4900;49.306;8.500;2023-03-01T09:08:44;17.77;;;13.73;;
9722;SDS011;4900;49.306;8.500;2023-03-01T09:11:11;18.73;;;13.10;;
9722;SDS011;4900;49.306;8.500;2023-03-01T09:13:40;20.23;;;14.07;;
9722;SDS011;4900;49.306;8.500;2023-03-01T09:16:06;18.90;;;14.00;;
9722;SDS011;4900;49.306;8.500;2023-03-01T09:18:32;20.20;;;14.33;;
9722;SDS011;4900;49.306;8.500;2023-03-01T09:21:10;18.00;;;13.40;;
9722;SDS011;4900;49.306;8.500;2023-03-01T09:23:40;19.77;;;13.97;;
9722;SDS011;4900;49.306;8.500;2023-03-01T09:26:07;18.70;;;14.43;;
9722;SDS011;4900;49.306;8.500;2023-03-01T09:28:35;19.00;;;14.77;;
9722;SDS011;4900;49.306;8.500;2023-03-01T09:31:02;18.77;;;14.00;;
9722;SDS011;4900;49.306;8.500;2023-03-01T09:33:29;18.83;;;13.90;;
9722;SDS011;4900;49.306;8.500;2023-03-01T09:36:05;18.47;;;14.07;;
9722;SDS011;4900;49.306;8.500;2023-03-01T09:38:32;18.83;;;13.73;;
9722;SDS011;4900;49.306;8.500;2023-03-01T09:40:59;18.17;;;14.13;;
9722;SDS011;4900;49.306;8.500;2023-03-01T09:43:45;20.00;;;14.43;;
9722;SDS011;4900;49.306;8.500;2023-03-01T09:46:19;19.63;;;13.73;;
9722;SDS011;4900;49.306;8.500;2023-03-01T09:48:48;18.90;;;14.70;;
9722;SDS011;4900;49.306;8.500;2023-03-01T09:51:27;19.87;;;14.57;;
9722;SDS011;4900;49.306;8.500;2023-03-01T09:53:57;18.08;;;13.88;;
9722;SDS011;4900;49.306;8.500;2023-03-01T09:56:30;18.88;;;14.65;;
9722;SDS011;4900;49.306;8.500;2023-03-01T10:07:23;18.65;;;14.60;;
9722;SDS011;4900;49.306;8.500;2023-03-01T10:10:07;20.13;;;14.82;;
9722;SDS011;4900;49.306;8.500;2023-03-01T10:12:34;18.30;;;15.20;;
9722;SDS011;4900;49.306;8.500;2023-03-01T10:15:04;17.45;;;14.77;;
9722;SDS011;4900;49.306;8.500;2023-03-01T10:17:33;19.40;;;15.05;;
9722;SDS011;4900;49.306;8.500;2023-03-01T10:22:45;19.85;;;15.73;;
9722;SDS011;4900;49.306;8.500;2023-03-01T10:25:15;17.15;;;14.15;;
9722;SDS011;4900;49.306;8.500;2023-03-01T10:27:53;17.77;;;14.30;;
9722;SDS011;4900;49.306;8.500;2023-03-01T10:30:21;19.85;;;15.30;;
9722;SDS011;4900;49.306;8.500;2023-03-01T10:32:54;18.00;;;14.52;;
9722;SDS011;4900;49.306;8.500;2023-03-01T10:35:23;17.42;;;13.77;;
9722;SDS011;4900;49.306;8.500;2023-03-01T10:38:24;18.52;;;15.35;;
9722;SDS011;4900;49.306;8.500;2023-03-01T10:40:59;18.38;;;14.45;;
9722;SDS011;4900;49.306;8.500;2023-03-01T10:43:46;17.77;;;14.20;;
9722;SDS011;4900;49.306;8.500;2023-03-01T10:51:35;15.65;;;13.20;;
9722;SDS011;4900;49.306;8.500;2023-03-01T10:54:01;20.65;;;15.50;;
9722;SDS011;4900;49.306;8.500;2023-03-01T10:56:27;20.55;;;16.55;;
9722;SDS011;4900;49.306;8.500;2023-03-01T11:01:26;18.48;;;14.52;;
9722;SDS011;4900;49.306;8.500;2023-03-01T11:06:31;16.75;;;14.43;;
9722;SDS011;4900;49.306;8.500;2023-03-01T11:09:13;18.73;;;14.10;;
9722;SDS011;4900;49.306;8.500;2023-03-01T11:11:40;17.42;;;13.63;;
9722;SDS011;4900;49.306;8.500;2023-03-01T11:14:07;17.73;;;14.77;;
9722;SDS011;4900;49.306;8.500;2023-03-01T11:16:42;17.90;;;14.88;;
9722;SDS011;4900;49.306;8.500;2023-03-01T11:21:36;16.13;;;12.90;;
9722;SDS011;4900;49.306;8.500;2023-03-01T11:24:34;17.05;;;13.55;;
9722;SDS011;4900;49.306;8.500;2023-03-01T11:27:08;16.90;;;14.52;;
9722;SDS011;4900;49.306;8.500;2023-03-01T11:30:06;17.00;;;14.95;;
9722;SDS011;4900;49.306;8.500;2023-03-01T11:32:42;17.70;;;14.55;;
9722;SDS011;4900;49.306;8.500;2023-03-01T11:35:20;17.15;;;14.90;;
9722;SDS011;4900;49.306;8.500;2023-03-01T11:40:45;16.33;;;13.65;;
9722;SDS011;4900;49.306;8.500;2023-03-01T11:43:20;14.93;;;13.00;;
9722;SDS011;4900;49.306;8.500;2023-03-01T11:51:41;16.30;;;13.30;;
9722;SDS011;4900;49.306;8.500;2023-03-01T11:57:03;14.50;;;12.93;;
9722;SDS011;4900;49.306;8.500;2023-03-01T12:02:53;16.75;;;14.38;;
9722;SDS011;4900;49.306;8.500;2023-03-01T12:05:59;16.63;;;14.13;;
9722;SDS011;4900;49.306;8.500;2023-03-01T12:08:49;14.30;;;12.77;;
9722;SDS011;4900;49.306;8.500;2023-03-01T12:25:27;16.02;;;13.55;;
9722;SDS011;4900;49.306;8.500;2023-03-01T12:36:55;14.77;;;12.27;;
9722;SDS011;4900;49.306;8.500;2023-03-01T12:47:59;16.60;;;14.75;;
9722;SDS011;4900;49.306;8.500;2023-03-01T12:50:43;18.00;;;15.18;;
9722;SDS011;4900;49.306;8.500;2023-03-01T12:53:19;18.55;;;13.50;;
9722;SDS011;4900;49.306;8.500;2023-03-01T12:55:49;16.70;;;13.45;;
9722;SDS011;4900;49.306;8.500;2023-03-01T12:58:31;18.85;;;15.35;;
9722;SDS011;4900;49.306;8.500;2023-03-01T13:03:58;17.05;;;14.23;;
9722;SDS011;4900;49.306;8.500;2023-03-01T13:17:52;17.05;;;14.32;;
9722;SDS011;4900;49.306;8.500;2023-03-01T13:20:21;17.35;;;13.75;;
9722;SDS011;4900;49.306;8.500;2023-03-01T13:31:03;15.70;;;13.13;;
9722;SDS011;4900;49.306;8.500;2023-03-01T13:35:58;15.55;;;13.18;;
9722;SDS011;4900;49.306;8.500;2023-03-01T13:38:37;16.70;;;13.13;;
9722;SDS011;4900;49.306;8.500;2023-03-01T13:41:12;19.92;;;14.80;;
9722;SDS011;4900;49.306;8.500;2023-03-01T13:43:40;17.35;;;13.80;;
9722;SDS011;4900;49.306;8.500;2023-03-01T13:46:18;16.73;;;13.30;;
9722;SDS011;4900;49.306;8.500;2023-03-01T13:48:47;15.40;;;13.40;;
9722;SDS011;4900;49.306;8.500;2023-03-01T13:51:19;15.35;;;12.43;;
9722;SDS011;4900;49.306;8.500;2023-03-01T13:53:50;14.98;;;12.63;;
9722;SDS011;4900;49.306;8.500;2023-03-01T13:56:21;15.32;;;12.23;;
9722;SDS011;4900;49.306;8.500;2023-03-01T14:03:48;14.95;;;12.77;;
9722;SDS011;4900;49.306;8.500;2023-03-01T14:06:15;14.82;;;12.23;;
9722;SDS011;4900;49.306;8.500;2023-03-01T14:08:45;15.95;;;13.32;;
9722;SDS011;4900;49.306;8.500;2023-03-01T14:21:45;14.40;;;11.60;;
9722;SDS011;4900;49.306;8.500;2023-03-01T14:24:18;12.75;;;10.52;;
9722;SDS011;4900;49.306;8.500;2023-03-01T14:26:51;13.20;;;10.13;;
9722;SDS011;4900;49.306;8.500;2023-03-01T14:29:27;12.85;;;11.15;;
9722;SDS011;4900;49.306;8.500;2023-03-01T14:34:42;12.50;;;10.13;;
9722;SDS011;4900;49.306;8.500;2023-03-01T14:37:19;12.00;;;10.48;;
9722;SDS011;4900;49.306;8.500;2023-03-01T14:39:52;12.38;;;11.10;;
9722;SDS011;4900;49.306;8.500;2023-03-01T14:42:19;12.63;;;10.98;;
9722;SDS011;4900;49.306;8.500;2023-03-01T14:44:47;12.15;;;10.88;;
9722;SDS011;4900;49.306;8.500;2023-03-01T14:47:22;12.13;;;10.65;;
9722;SDS011;4900;49.306;8.500;2023-03-01T14:49:55;11.38;;;9.98;;
9722;SDS011;4900;49.306;8.500;2023-03-01T14:52:36;12.30;;;10.25;;
9722;SDS011;4900;49.306;8.500;2023-03-01T14:55:05;12.27;;;10.98;;
9722;SDS011;4900;49.306;8.500;2023-03-01T14:57:42;13.32;;;10.60;;
9722;SDS011;4900;49.306;8.500;2023-03-01T15:00:10;12.82;;;10.77;;
9722;SDS011;4900;49.306;8.500;2023-03-01T15:02:44;11.77;;;10.32;;
9722;SDS011;4900;49.306;8.500;2023-03-01T15:05:13;12.38;;;9.40;;
9722;SDS011;4900;49.306;8.500;2023-03-01T15:07:40;12.82;;;10.38;;
9722;SDS011;4900;49.306;8.500;2023-03-01T15:10:20;10.13;;;9.10;;
9722;SDS011;4900;49.306;8.500;2023-03-01T15:12:48;11.00;;;9.75;;
9722;SDS011;4900;49.306;8.500;2023-03-01T15:18:02;11.88;;;9.80;;
9722;SDS011;4900;49.306;8.500;2023-03-01T15:20:30;13.30;;;10.40;;
9722;SDS011;4900;49.306;8.500;2023-03-01T15:23:00;11.88;;;9.95;;
9722;SDS011;4900;49.306;8.500;2023-03-01T15:25:27;10.88;;;9.40;;
9722;SDS011;4900;49.306;8.500;2023-03-01T15:27:55;11.65;;;10.13;;
9722;SDS011;4900;49.306;8.500;2023-03-01T15:30:23;12.02;;;10.15;;
9722;SDS011;4900;49.306;8.500;2023-03-01T15:35:58;12.85;;;10.38;;
9722;SDS011;4900;49.306;8.500;2023-03-01T15:41:05;11.95;;;10.10;;
9722;SDS011;4900;49.306;8.500;2023-03-01T15:43:47;12.32;;;10.25;;
9722;SDS011;4900;49.306;8.500;2023-03-01T15:46:18;13.02;;;11.48;;
9722;SDS011;4900;49.306;8.500;2023-03-01T15:48:51;13.05;;;10.98;;
9722;SDS011;4900;49.306;8.500;2023-03-01T15:51:26;12.35;;;11.05;;
9722;SDS011;4900;49.306;8.500;2023-03-01T15:53:55;12.57;;;10.68;;
9722;SDS011;4900;49.306;8.500;2023-03-01T15:56:23;13.45;;;11.20;;
9722;SDS011;4900;49.306;8.500;2023-03-01T15:58:48;15.65;;;10.52;;
9722;SDS011;4900;49.306;8.500;2023-03-01T16:01:14;15.65;;;13.57;;
9722;SDS011;4900;49.306;8.500;2023-03-01T16:03:44;14.10;;;11.75;;
9722;SDS011;4900;49.306;8.500;2023-03-01T16:06:10;14.48;;;12.73;;
9722;SDS011;4900;49.306;8.500;2023-03-01T16:08:39;15.18;;;11.93;;
9722;SDS011;4900;49.306;8.500;2023-03-01T16:11:05;13.35;;;11.20;;
9722;SDS011;4900;49.306;8.500;2023-03-01T16:13:41;13.60;;;11.63;;
9722;SDS011;4900;49.306;8.500;2023-03-01T16:16:08;13.15;;;11.27;;
9722;SDS011;4900;49.306;8.500;2023-03-01T16:18:37;15.13;;;12.10;;
9722;SDS011;4900;49.306;8.500;2023-03-01T16:21:04;14.32;;;12.23;;
9722;SDS011;4900;49.306;8.500;2023-03-01T16:23:30;14.65;;;12.27;;
9722;SDS011;4900;49.306;8.500;2023-03-01T16:25:58;15.52;;;11.90;;
9722;SDS011;4900;49.306;8.500;2023-03-01T16:28:24;15.13;;;11.75;;
9722;SDS011;4900;49.306;8.500;2023-03-01T16:30:51;15.80;;;10.85;;
9722;SDS011;4900;49.306;8.500;2023-03-01T16:33:17;13.93;;;10.60;;
9722;SDS011;4900;49.306;8.500;2023-03-01T16:35:42;14.73;;;11.00;;
9722;SDS011;4900;49.306;8.500;2023-03-01T16:38:09;12.70;;;9.85;;
9722;SDS011;4900;49.306;8.500;2023-03-01T16:40:35;13.75;;;10.40;;
9722;SDS011;4900;49.306;8.500;2023-03-01T16:43:00;13.43;;;9.27;;
9722;SDS011;4900;49.306;8.500;2023-03-01T16:45:27;12.55;;;9.52;;
9722;SDS011;4900;49.306;8.500;2023-03-01T16:47:53;12.95;;;9.93;;
9722;SDS011;4900;49.306;8.500;2023-03-01T16:50:19;12.40;;;9.73;;
9722;SDS011;4900;49.306;8.500;2023-03-01T16:52:45;14.63;;;10.20;;
9722;SDS011;4900;49.306;8.500;2023-03-01T16:55:10;12.60;;;9.70;;
9722;SDS011;4900;49.306;8.500;2023-03-01T16:57:36;11.55;;;8.80;;
9722;SDS011;4900;49.306;8.500;2023-03-01T17:00:03;12.07;;;10.02;;
9722;SDS011;4900;49.306;8.500;2023-03-01T17:02:32;12.77;;;9.77;;
9722;SDS011;4900;49.306;8.500;2023-03-01T17:04:59;12.80;;;9.50;;
9722;SDS011;4900;49.306;8.500;2023-03-01T17:07:24;13.20;;;9.98;;
9722;SDS011;4900;49.306;8.500;2023-03-01T17:09:50;13.33;;;10.30;;
9722;SDS011;4900;49.306;8.500;2023-03-01T17:12:15;11.90;;;9.40;;
9722;SDS011;4900;49.306;8.500;2023-03-01T17:14:41;12.83;;;9.80;;
9722;SDS011;4900;49.306;8.500;2023-03-01T17:17:07;12.57;;;9.73;;
9722;SDS011;4900;49.306;8.500;2023-03-01T17:19:34;13.53;;;10.23;;